Time;durP1;ratioP1;P1;durP2;ratioP2;P2;SDS_P1;SDS_P2;PMS_P1;PMS_P2;Temp;Humidity;BMP_temperature;BMP_pressure;BME280_temperature;BME280_humidity;BME280_pressure;Samples;Min_cycle;Max_cycle;Signal;HPM_P1;HPM_P2
2022/11/05 00:19:15;;;;;;;4.50;1.85;;;12.00;98.80;;;;;;10456253;28;20024;-63
2022/11/05 00:29:36;;;;;;;3.20;1.70;;;12.00;98.80;;;;;;10455518;28;20178;-63
2022/11/05 00:34:37;;;;;;;1.70;1.13;;;11.90;98.80;;;;;;10456394;28;20516;-64
2022/11/05 00:39:38;;;;;;;3.35;1.55;;;11.90;98.80;;;;;;10453792;28;20473;-63
2022/11/05 00:50:04;;;;;;;3.90;1.60;;;11.90;98.80;;;;;;10456525;28;20486;-64
2022/11/05 00:55:05;;;;;;;2.88;1.45;;;11.90;98.80;;;;;;10454638;28;20060;-63
2022/11/05 01:00:06;;;;;;;3.55;1.58;;;11.90;98.80;;;;;;10454671;28;20033;-63
2022/11/05 01:05:08;;;;;;;4.03;1.50;;;11.90;98.80;;;;;;10454255;28;20040;-63
2022/11/05 01:10:09;;;;;;;6.78;1.63;;;11.90;98.80;;;;;;10448269;28;20115;-63
2022/11/05 01:15:10;;;;;;;3.78;1.73;;;11.90;98.80;;;;;;10444377;28;20028;-63
2022/11/05 01:20:11;;;;;;;3.17;1.30;;;11.80;98.80;;;;;;10450168;28;20037;-64
2022/11/05 01:25:12;;;;;;;2.92;1.33;;;11.80;98.80;;;;;;10451745;28;20052;-63
2022/11/05 01:30:13;;;;;;;2.13;1.23;;;11.80;98.80;;;;;;10454896;28;20465;-63
2022/11/05 01:35:16;;;;;;;1.90;0.93;;;11.80;98.80;;;;;;10454872;28;20041;-64
2022/11/05 01:40:23;;;;;;;3.53;1.40;;;11.90;98.80;;;;;;10453572;28;20024;-64
2022/11/05 01:45:26;;;;;;;3.58;1.42;;;11.80;98.80;;;;;;10455007;28;20202;-64
2022/11/05 01:50:30;;;;;;;2.17;1.33;;;11.80;98.80;;;;;;10453784;28;20120;-63
2022/11/05 01:55:34;;;;;;;2.45;1.27;;;11.80;98.80;;;;;;10455269;28;20060;-63
2022/11/05 02:00:42;;;;;;;3.88;1.30;;;11.80;98.80;;;;;;10455508;28;20458;-63
2022/11/05 02:05:44;;;;;;;4.57;1.37;;;11.80;98.80;;;;;;10451823;28;20065;-64
2022/11/05 02:10:45;;;;;;;1.73;1.30;;;11.70;98.80;;;;;;10446513;28;20883;-63
2022/11/05 02:15:52;;;;;;;4.45;1.80;;;11.70;98.80;;;;;;10454292;28;20401;-64
2022/11/05 02:21:12;;;;;;;3.33;1.50;;;11.70;98.70;;;;;;10449337;28;20029;-63
2022/11/05 02:26:31;;;;;;;4.03;1.38;;;11.70;98.70;;;;;;10455004;28;20043;-64
2022/11/05 02:32:02;;;;;;;2.65;1.60;;;11.70;98.70;;;;;;10451596;28;20020;-63
2022/11/05 02:37:19;;;;;;;3.10;1.80;;;11.70;98.70;;;;;;10453722;28;20040;-62
2022/11/05 02:42:59;;;;;;;3.42;1.30;;;11.70;98.70;;;;;;10450774;28;20111;-63
2022/11/05 02:48:07;;;;;;;2.78;1.50;;;11.70;98.70;;;;;;10437152;28;20048;-63
2022/11/05 02:53:17;;;;;;;2.25;1.65;;;11.60;98.70;;;;;;10450124;28;20025;-63
2022/11/05 02:58:19;;;;;;;2.65;1.45;;;11.60;98.70;;;;;;10450740;28;20043;-63
2022/11/05 03:03:31;;;;;;;3.78;1.75;;;11.60;98.80;;;;;;10460650;28;20103;-63
2022/11/05 03:08:48;;;;;;;2.97;1.60;;;11.60;98.70;;;;;;10460457;28;20037;-63
2022/11/05 03:14:26;;;;;;;1.77;1.40;;;11.60;98.70;;;;;;10460810;28;20712;-63
2022/11/05 03:19:36;;;;;;;2.77;1.43;;;11.60;98.60;;;;;;10452509;28;20037;-63
2022/11/05 03:24:43;;;;;;;6.05;1.90;;;11.50;98.60;;;;;;10457527;28;20037;-63
2022/11/05 03:29:49;;;;;;;2.35;1.70;;;11.50;98.70;;;;;;10459735;28;20433;-63
2022/11/05 03:34:57;;;;;;;5.63;2.05;;;11.50;98.70;;;;;;10459323;28;20033;-63
2022/11/05 03:40:02;;;;;;;4.80;1.83;;;11.50;98.60;;;;;;10458818;28;20112;-63
2022/11/05 03:45:14;;;;;;;2.88;1.60;;;11.50;98.60;;;;;;10452982;28;20075;-63
2022/11/05 03:50:25;;;;;;;3.28;1.70;;;11.50;98.60;;;;;;10457934;28;20056;-63
2022/11/05 03:55:31;;;;;;;2.33;1.70;;;11.40;98.60;;;;;;10451894;28;20044;-63
2022/11/05 04:00:32;;;;;;;2.80;1.83;;;11.40;98.60;;;;;;10456580;28;20021;-64
2022/11/05 04:05:33;;;;;;;3.15;1.75;;;11.40;98.60;;;;;;10453270;28;20067;-63
2022/11/05 04:26:44;;;;;;;1.92;1.40;;;11.50;98.50;;;;;;10459309;28;20460;-63
2022/11/05 04:31:44;;;;;;;2.40;1.52;;;11.40;98.50;;;;;;10455171;28;20116;-63
2022/11/05 04:36:48;;;;;;;3.83;1.77;;;11.40;98.50;;;;;;10459107;28;20556;-63
2022/11/05 04:41:49;;;;;;;3.20;1.52;;;11.30;98.50;;;;;;10453534;28;20041;-63
2022/11/05 04:46:49;;;;;;;3.08;1.60;;;11.30;98.50;;;;;;10457266;28;20040;-64
2022/11/05 04:51:50;;;;;;;3.90;1.60;;;11.40;98.50;;;;;;10451595;28;20400;-63
2022/11/05 04:56:51;;;;;;;3.13;1.40;;;11.30;98.40;;;;;;10456667;28;20123;-64
2022/11/05 05:01:52;;;;;;;4.07;1.40;;;11.30;98.40;;;;;;10453216;28;20435;-63
2022/11/05 05:06:52;;;;;;;3.90;1.63;;;11.30;98.40;;;;;;10454855;28;20189;-63
2022/11/05 05:11:53;;;;;;;3.17;1.70;;;11.30;98.40;;;;;;10456986;28;20498;-63
2022/11/05 05:16:54;;;;;;;3.47;1.63;;;11.30;98.40;;;;;;10455672;28;20547;-63
2022/11/05 05:21:54;;;;;;;4.43;2.08;;;11.30;98.40;;;;;;10455521;28;20535;-63
2022/11/05 05:26:55;;;;;;;2.50;1.75;;;11.30;98.40;;;;;;10455633;28;20706;-62
2022/11/05 05:31:56;;;;;;;2.30;1.65;;;11.30;98.40;;;;;;10457494;28;20514;-63
2022/11/05 05:36:57;;;;;;;3.85;1.75;;;11.20;98.30;;;;;;10452482;28;20133;-63
2022/11/05 05:41:57;;;;;;;5.88;1.83;;;11.20;98.30;;;;;;10450053;28;20116;-62
2022/11/05 05:46:58;;;;;;;3.42;1.83;;;11.10;98.30;;;;;;10470279;28;20039;-63
2022/11/05 05:51:59;;;;;;;2.10;1.40;;;11.30;98.30;;;;;;10452758;28;20031;-64
2022/11/05 05:57:00;;;;;;;3.55;1.65;;;11.30;98.30;;;;;;10453930;28;20038;-63
2022/11/05 06:02:00;;;;;;;2.63;1.42;;;11.20;98.30;;;;;;10455035;28;20042;-64
2022/11/05 06:07:01;;;;;;;3.30;1.63;;;11.20;98.30;;;;;;10455190;28;20043;-64
2022/11/05 06:12:02;;;;;;;2.67;1.70;;;11.20;98.30;;;;;;10452994;28;20124;-63
2022/11/05 06:17:03;;;;;;;3.03;1.55;;;11.20;98.30;;;;;;10466464;28;20033;-64
2022/11/05 06:22:04;;;;;;;2.78;1.63;;;11.20;98.30;;;;;;10447008;28;20029;-63
2022/11/05 06:27:05;;;;;;;1.67;1.27;;;11.30;98.30;;;;;;10449596;28;20075;-64
2022/11/05 06:32:06;;;;;;;3.67;1.70;;;11.20;98.30;;;;;;10451890;28;20120;-63
2022/11/05 06:37:07;;;;;;;3.67;1.38;;;11.20;98.30;;;;;;10454144;28;20132;-63
2022/11/05 06:42:08;;;;;;;2.55;1.45;;;11.20;98.30;;;;;;10456943;28;20013;-64
2022/11/05 06:47:09;;;;;;;3.22;1.60;;;11.20;98.30;;;;;;10454721;28;20040;-63
2022/11/05 06:52:11;;;;;;;3.55;1.25;;;11.10;98.30;;;;;;10452397;28;20516;-64
2022/11/05 06:57:12;;;;;;;3.53;1.45;;;11.10;98.20;;;;;;10452599;28;20031;-63
2022/11/05 07:02:13;;;;;;;1.77;1.38;;;11.10;98.20;;;;;;10438822;28;20023;-63
2022/11/05 07:07:14;;;;;;;4.28;1.90;;;11.10;98.20;;;;;;10389839;28;21288;-65
2022/11/05 07:12:15;;;;;;;2.97;1.58;;;11.10;98.20;;;;;;10377138;28;20033;-63
2022/11/05 07:17:17;;;;;;;2.60;1.42;;;11.10;98.20;;;;;;10371750;28;20448;-64
2022/11/05 07:22:17;;;;;;;2.70;1.40;;;11.10;98.20;;;;;;10375148;28;20040;-64
2022/11/05 07:27:21;;;;;;;3.13;1.40;;;11.10;98.20;;;;;;10378514;28;20047;-63
2022/11/05 07:32:22;;;;;;;3.20;1.48;;;11.60;98.30;;;;;;10364299;28;20025;-63
2022/11/05 07:37:24;;;;;;;6.35;2.03;;;11.10;98.10;;;;;;10366423;28;20061;-63
2022/11/05 07:42:24;;;;;;;3.40;1.52;;;11.10;98.10;;;;;;10363381;28;20675;-62
2022/11/05 07:47:25;;;;;;;3.28;1.50;;;11.10;98.10;;;;;;10372346;28;20045;-63
2022/11/05 07:52:26;;;;;;;2.33;1.50;;;11.20;98.10;;;;;;10382869;28;20117;-62
2022/11/05 07:57:28;;;;;;;3.63;1.50;;;11.20;98.10;;;;;;10382647;28;20037;-67
2022/11/05 08:02:28;;;;;;;2.35;1.58;;;11.20;98.10;;;;;;10372519;28;20033;-69
2022/11/05 08:07:29;;;;;;;3.75;1.58;;;11.20;98.00;;;;;;10378632;28;20298;-62
2022/11/05 08:12:31;;;;;;;2.83;1.73;;;11.20;98.00;;;;;;10367929;28;20505;-63
2022/11/05 08:17:33;;;;;;;1.65;1.30;;;11.20;98.00;;;;;;10373292;28;20634;-62
2022/11/05 08:22:33;;;;;;;2.35;1.25;;;11.20;97.90;;;;;;10368736;28;20238;-62
2022/11/05 08:27:34;;;;;;;3.30;1.50;;;11.40;97.90;;;;;;10378247;28;20040;-62
2022/11/05 08:32:35;;;;;;;2.05;1.30;;;11.40;97.80;;;;;;10376869;28;20016;-62
2022/11/05 08:37:36;;;;;;;3.25;1.40;;;11.50;97.80;;;;;;10352576;28;20396;-62
2022/11/05 08:42:37;;;;;;;2.97;1.20;;;11.50;98.00;;;;;;10361088;28;20234;-64
2022/11/05 08:47:37;;;;;;;2.45;1.48;;;11.60;97.80;;;;;;10336113;28;20037;-62
2022/11/05 08:52:41;;;;;;;3.75;1.23;;;11.70;97.70;;;;;;10343990;28;20040;-63
2022/11/05 08:57:42;;;;;;;2.17;1.08;;;11.70;97.70;;;;;;10362275;28;20678;-63
2022/11/05 09:02:43;;;;;;;1.83;1.15;;;11.90;97.70;;;;;;10366893;28;20021;-61
2022/11/05 09:07:45;;;;;;;2.85;1.30;;;11.80;97.70;;;;;;10348029;28;20071;-62
2022/11/05 09:12:46;;;;;;;2.08;1.00;;;11.90;97.70;;;;;;10347757;28;20036;-62
2022/11/05 09:17:46;;;;;;;1.45;1.05;;;11.80;97.60;;;;;;10371472;28;20413;-62
2022/11/05 09:22:48;;;;;;;2.50;1.20;;;12.30;97.80;;;;;;10371766;28;20028;-62
2022/11/05 09:27:48;;;;;;;2.58;1.10;;;11.90;97.70;;;;;;10374115;28;20040;-61
2022/11/05 09:32:50;;;;;;;1.88;1.08;;;11.90;97.70;;;;;;10371840;28;20029;-63
2022/11/05 09:37:51;;;;;;;1.55;1.00;;;11.90;97.70;;;;;;10371428;28;20603;-61
2022/11/05 09:42:53;;;;;;;1.42;0.90;;;12.00;97.80;;;;;;10355579;28;20022;-66
2022/11/05 09:48:08;;;;;;;3.05;1.00;;;12.00;97.80;;;;;;10359288;28;20065;-62
2022/11/05 09:53:15;;;;;;;3.63;1.20;;;12.00;97.80;;;;;;10340262;28;20233;-65
2022/11/05 09:58:31;;;;;;;2.03;1.20;;;12.00;97.80;;;;;;10355647;28;20037;-61
2022/11/05 10:03:35;;;;;;;3.38;1.35;;;12.10;98.10;;;;;;10354157;28;20517;-65
2022/11/05 10:08:41;;;;;;;2.45;0.90;;;12.10;97.90;;;;;;10351778;28;20333;-63
2022/11/05 10:13:57;;;;;;;2.55;1.42;;;12.10;97.90;;;;;;10366738;28;20075;-63
2022/11/05 10:19:11;;;;;;;2.33;1.17;;;12.20;98.00;;;;;;10363562;28;20584;-62
2022/11/05 10:24:14;;;;;;;2.90;1.10;;;12.20;97.90;;;;;;10368183;28;20324;-62
2022/11/05 10:29:24;;;;;;;2.60;1.20;;;12.20;97.90;;;;;;10376573;28;20476;-63
2022/11/05 10:34:30;;;;;;;5.05;1.60;;;12.20;98.00;;;;;;10375801;28;20067;-63
2022/11/05 10:39:32;;;;;;;2.55;1.45;;;12.20;98.00;;;;;;10376005;28;20029;-66
2022/11/05 10:45:03;;;;;;;1.98;1.08;;;12.20;98.00;;;;;;10359881;28;20120;-65
2022/11/05 10:50:10;;;;;;;2.92;1.15;;;11.90;97.90;;;;;;10370077;28;20025;-69
2022/11/05 10:55:37;;;;;;;2.33;1.10;;;12.30;98.00;;;;;;10372238;28;20028;-63
2022/11/05 11:00:38;;;;;;;1.90;0.95;;;12.30;98.00;;;;;;10368698;28;20037;-63
2022/11/05 11:05:39;;;;;;;3.03;1.10;;;12.30;98.00;;;;;;10370642;28;20049;-62
2022/11/05 11:10:53;;;;;;;3.72;1.13;;;12.30;98.00;;;;;;10374032;28;20147;-65
2022/11/05 11:16:11;;;;;;;2.08;1.02;;;12.40;98.10;;;;;;10368119;28;20025;-63
2022/11/05 11:21:18;;;;;;;2.65;1.15;;;12.40;98.10;;;;;;10376418;28;20036;-63
2022/11/05 11:26:20;;;;;;;2.92;1.00;;;12.40;98.20;;;;;;10370734;28;20111;-63
2022/11/05 11:31:24;;;;;;;2.10;0.98;;;12.30;98.20;;;;;;10375248;28;20029;-63
2022/11/05 11:36:31;;;;;;;2.33;1.05;;;12.30;98.30;;;;;;10373852;28;20622;-62
2022/11/05 11:41:38;;;;;;;2.22;0.88;;;12.30;98.30;;;;;;10372669;28;20815;-62
2022/11/05 11:46:39;;;;;;;1.48;1.00;;;12.30;98.30;;;;;;10373810;28;20587;-62
2022/11/05 11:51:45;;;;;;;3.05;2.05;;;12.30;98.30;;;;;;10371225;28;20029;-63
2022/11/05 11:56:47;;;;;;;5.78;1.42;;;12.30;98.50;;;;;;10371246;28;20037;-66
2022/11/05 12:02:20;;;;;;;3.83;1.45;;;12.30;98.60;;;;;;10368254;28;20021;-63
2022/11/05 12:07:36;;;;;;;7.97;1.80;;;11.90;98.60;;;;;;10371734;28;20388;-64
2022/11/05 12:12:46;;;;;;;3.38;1.85;;;12.30;98.80;;;;;;10381766;28;21502;-63
2022/11/05 12:18:08;;;;;;;6.60;2.95;;;12.40;98.80;;;;;;10377973;28;20095;-63
2022/11/05 12:23:11;;;;;;;4.15;1.73;;;12.40;98.70;;;;;;10381404;28;20021;-64
2022/11/05 12:29:11;;;;;;;2.22;1.45;;;12.40;98.60;;;;;;10377931;28;20323;-62
2022/11/05 12:35:01;;;;;;;3.65;1.33;;;12.50;98.70;;;;;;10329572;28;20043;-61
2022/11/05 12:40:37;;;;;;;2.22;1.30;;;12.40;98.60;;;;;;10374442;28;20492;-62
2022/11/05 12:46:04;;;;;;;4.05;1.45;;;12.50;98.60;;;;;;10377875;28;22165;-67
2022/11/05 12:51:43;;;;;;;2.97;1.90;;;12.50;98.50;;;;;;10375860;28;20580;-62
2022/11/05 12:57:09;;;;;;;2.88;1.33;;;12.50;98.50;;;;;;10365622;28;20578;-62
2022/11/05 13:02:56;;;;;;;2.28;1.35;;;12.60;98.50;;;;;;10372710;28;20036;-61
2022/11/05 13:08:34;;;;;;;3.30;1.52;;;12.60;98.50;;;;;;10379288;28;21550;-62
2022/11/05 13:13:47;;;;;;;2.22;1.33;;;12.50;98.50;;;;;;10379219;28;20075;-67
2022/11/05 13:19:15;;;;;;;5.03;1.67;;;12.60;98.50;;;;;;10375010;28;20033;-65
2022/11/05 13:24:44;;;;;;;3.60;1.55;;;12.60;98.50;;;;;;10372197;28;20084;-62
2022/11/05 13:29:55;;;;;;;3.75;1.23;;;13.10;98.60;;;;;;10376131;28;20556;-61
2022/11/05 13:35:02;;;;;;;3.30;1.55;;;12.60;98.50;;;;;;10381139;28;20048;-62
2022/11/05 13:40:07;;;;;;;3.60;1.48;;;12.60;98.60;;;;;;10378953;28;20051;-61
2022/11/05 13:45:28;;;;;;;1.50;1.30;;;12.60;98.60;;;;;;10375964;28;20486;-61
2022/11/05 13:51:06;;;;;;;3.13;1.58;;;12.70;98.60;;;;;;10380132;28;20512;-62
2022/11/05 13:56:15;;;;;;;3.42;1.27;;;12.60;98.50;;;;;;10377368;28;20036;-61
2022/11/05 14:01:41;;;;;;;5.18;1.80;;;12.60;98.60;;;;;;10383898;28;20082;-62
2022/11/05 14:06:42;;;;;;;2.85;1.23;;;12.60;98.60;;;;;;10382468;28;20051;-65
2022/11/05 14:11:50;;;;;;;4.47;1.83;;;12.60;98.60;;;;;;10376593;28;20032;-61
2022/11/05 14:17:05;;;;;;;4.10;1.50;;;12.60;98.60;;;;;;10375319;28;20063;-62
2022/11/05 14:22:31;;;;;;;2.70;1.63;;;12.60;98.60;;;;;;10369367;28;20439;-64
2022/11/05 14:27:42;;;;;;;3.05;1.58;;;12.50;98.60;;;;;;10365133;28;20370;-61
2022/11/05 14:32:47;;;;;;;3.35;1.40;;;12.50;98.60;;;;;;10372880;28;20024;-61
2022/11/05 14:37:54;;;;;;;3.10;1.33;;;12.50;98.60;;;;;;10373418;28;20511;-61
2022/11/05 14:43:01;;;;;;;4.00;1.60;;;12.50;98.60;;;;;;10370603;28;20036;-61
2022/11/05 14:48:34;;;;;;;2.22;1.40;;;12.50;98.60;;;;;;10380139;28;20498;-61
2022/11/05 14:53:38;;;;;;;2.10;1.48;;;12.50;98.60;;;;;;10372690;28;20078;-60
2022/11/05 14:58:41;;;;;;;5.47;1.83;;;12.50;98.60;;;;;;10382489;28;20036;-61
2022/11/05 15:03:41;;;;;;;4.63;2.13;;;12.50;98.60;;;;;;10381743;28;20266;-61
2022/11/05 15:08:48;;;;;;;2.08;1.42;;;12.50;98.60;;;;;;10382384;28;20083;-63
2022/11/05 15:13:55;;;;;;;3.22;1.70;;;12.50;98.60;;;;;;10377902;28;20767;-60
2022/11/05 15:18:56;;;;;;;2.22;1.55;;;12.50;98.70;;;;;;10373120;28;20040;-63
2022/11/05 15:23:57;;;;;;;2.55;1.77;;;12.40;98.70;;;;;;10379232;28;20030;-61
2022/11/05 15:28:59;;;;;;;4.10;1.95;;;12.40;98.90;;;;;;10382667;28;20060;-61
2022/11/05 15:34:34;;;;;;;6.40;2.00;;;12.40;98.70;;;;;;10372105;28;20552;-61
2022/11/05 15:39:39;;;;;;;3.08;1.70;;;12.40;98.60;;;;;;10367847;28;20083;-60
2022/11/05 15:44:46;;;;;;;2.53;1.58;;;12.40;98.70;;;;;;10380928;28;20071;-60
2022/11/05 15:49:53;;;;;;;3.53;2.25;;;12.40;98.80;;;;;;10368137;28;20513;-63
2022/11/05 15:55:12;;;;;;;3.80;1.90;;;12.40;98.80;;;;;;10379164;28;20725;-62
2022/11/05 16:00:23;;;;;;;5.07;1.92;;;12.30;98.70;;;;;;10383692;28;20340;-62
2022/11/05 16:05:30;;;;;;;3.08;1.90;;;12.40;98.80;;;;;;10374906;28;20037;-62
2022/11/05 16:10:37;;;;;;;6.90;2.00;;;12.30;98.80;;;;;;10375990;28;20475;-61
2022/11/05 16:15:37;;;;;;;3.78;2.00;;;12.30;98.80;;;;;;10366917;28;20467;-62
2022/11/05 16:20:38;;;;;;;4.90;2.15;;;12.30;98.80;;;;;;10367381;28;20040;-61
2022/11/05 16:25:41;;;;;;;4.03;2.20;;;12.30;98.80;;;;;;10366637;28;20118;-61
2022/11/05 16:30:55;;;;;;;4.63;2.33;;;12.30;98.80;;;;;;10446349;28;20025;-65
2022/11/05 16:35:56;;;;;;;5.78;2.78;;;12.30;99.10;;;;;;10457095;28;20041;-61
2022/11/05 16:40:59;;;;;;;4.28;2.30;;;12.20;98.80;;;;;;10447804;28;20037;-61
2022/11/05 16:46:00;;;;;;;5.22;2.90;;;12.30;98.80;;;;;;10437887;28;20040;-62
2022/11/05 16:51:01;;;;;;;3.50;2.58;;;12.20;99.10;;;;;;10443247;28;20523;-61
2022/11/05 16:56:02;;;;;;;4.30;2.80;;;12.20;98.80;;;;;;10445074;28;20060;-64
2022/11/05 17:01:09;;;;;;;4.18;2.75;;;12.20;98.90;;;;;;10444868;28;20444;-63
2022/11/05 17:06:11;;;;;;;4.68;2.75;;;12.20;98.80;;;;;;10445586;28;20028;-63
2022/11/05 17:11:20;;;;;;;5.70;3.10;;;12.20;98.90;;;;;;10448631;28;20090;-63
2022/11/05 17:16:20;;;;;;;;;;;12.20;98.80;;;;;;10438876;28;20032;-62
2022/11/05 17:21:21;;;;;;;5.90;2.80;;;12.20;98.80;;;;;;10447639;28;19909;-61
2022/11/05 17:26:22;;;;;;;5.28;2.88;;;12.20;98.80;;;;;;10450668;28;20048;-61
2022/11/05 17:31:23;;;;;;;6.28;2.95;;;12.20;98.80;;;;;;10442780;28;20115;-61
2022/11/05 17:36:24;;;;;;;4.75;2.78;;;12.20;98.90;;;;;;10438106;28;20451;-60
2022/11/05 17:41:25;;;;;;;9.63;3.67;;;12.20;98.80;;;;;;10447239;28;20084;-64
2022/11/05 17:46:26;;;;;;;9.90;3.97;;;12.10;98.80;;;;;;10449591;28;20045;-64
2022/11/05 17:51:27;;;;;;;8.25;4.10;;;12.00;99.10;;;;;;10444408;28;20492;-64
2022/11/05 17:56:27;;;;;;;8.70;3.75;;;12.00;99.00;;;;;;10445933;28;20037;-62
2022/11/05 18:01:31;;;;;;;10.90;3.72;;;12.10;99.10;;;;;;10445718;28;20029;-63
2022/11/05 18:06:31;;;;;;;5.50;3.75;;;12.10;99.00;;;;;;10449873;28;20488;-62
2022/11/05 18:11:34;;;;;;;6.03;3.55;;;12.10;99.00;;;;;;10436411;28;20028;-61
2022/11/05 18:16:35;;;;;;;7.18;3.20;;;12.10;99.00;;;;;;10435632;28;20143;-61
2022/11/05 18:21:36;;;;;;;6.05;3.78;;;12.10;99.00;;;;;;10447827;28;20028;-62
2022/11/05 18:26:36;;;;;;;6.30;3.60;;;12.10;99.00;;;;;;10450176;28;20055;-61
2022/11/05 18:31:37;;;;;;;6.70;3.40;;;12.10;99.00;;;;;;10452262;28;20028;-61
2022/11/05 18:36:38;;;;;;;7.13;3.47;;;12.10;99.00;;;;;;10423208;28;20409;-61
2022/11/05 18:41:39;;;;;;;5.43;3.63;;;12.10;99.00;;;;;;10433775;28;20401;-61
2022/11/05 18:46:40;;;;;;;6.32;3.25;;;12.10;99.00;;;;;;10436260;28;20040;-61
2022/11/05 18:51:40;;;;;;;7.93;3.03;;;12.10;99.00;;;;;;10420758;28;20025;-61
2022/11/05 18:56:44;;;;;;;3.55;2.78;;;12.20;99.00;;;;;;10426169;28;20296;-61
2022/11/05 19:01:45;;;;;;;8.15;3.55;;;12.20;99.00;;;;;;10437545;28;21017;-61
2022/11/05 19:06:46;;;;;;;5.07;2.83;;;12.10;98.90;;;;;;10437349;28;20041;-61
2022/11/05 19:11:47;;;;;;;5.85;3.25;;;12.20;99.00;;;;;;10442902;28;20257;-61
2022/11/05 19:16:47;;;;;;;7.32;3.10;;;12.10;99.00;;;;;;10444604;28;20390;-61
2022/11/05 19:21:49;;;;;;;7.45;2.80;;;12.10;98.90;;;;;;10438752;28;20470;-62
2022/11/05 19:26:50;;;;;;;7.28;3.17;;;12.10;99.00;;;;;;10441204;28;20108;-63
2022/11/05 19:31:51;;;;;;;5.88;2.92;;;12.10;99.00;;;;;;10449704;28;20363;-62
2022/11/05 19:36:51;;;;;;;4.93;2.58;;;12.10;98.90;;;;;;10436107;28;20049;-62
2022/11/05 19:41:52;;;;;;;9.00;3.00;;;12.10;98.90;;;;;;10449633;28;20029;-63
2022/11/05 19:46:53;;;;;;;6.97;3.10;;;12.10;98.90;;;;;;10451400;28;20047;-62
2022/11/05 19:51:54;;;;;;;4.03;2.50;;;12.10;98.90;;;;;;10450155;28;20822;-62
2022/11/05 19:56:54;;;;;;;5.10;2.70;;;12.10;98.90;;;;;;10453536;28;20036;-63
2022/11/05 20:01:55;;;;;;;6.90;2.83;;;12.10;98.90;;;;;;10452694;28;20387;-62
2022/11/05 20:06:56;;;;;;;3.95;2.38;;;12.10;98.90;;;;;;10453381;28;20504;-62
2022/11/05 20:11:57;;;;;;;6.95;2.78;;;12.10;98.90;;;;;;10454057;28;20074;-62
2022/11/05 20:16:58;;;;;;;5.75;2.72;;;12.10;98.90;;;;;;10455899;28;20075;-62
2022/11/05 20:21:59;;;;;;;6.28;2.55;;;12.10;98.90;;;;;;10460383;28;20025;-61
2022/11/05 20:27:00;;;;;;;4.35;2.40;;;12.10;98.90;;;;;;10458935;28;20048;-62
2022/11/05 20:32:02;;;;;;;7.78;2.85;;;12.20;98.90;;;;;;10458609;28;20017;-62
2022/11/05 20:37:03;;;;;;;8.18;2.67;;;12.10;98.90;;;;;;10454561;28;20057;-62
2022/11/05 20:42:03;;;;;;;5.38;2.67;;;12.20;98.90;;;;;;10457557;28;20388;-66
2022/11/05 20:47:04;;;;;;;5.63;2.92;;;12.10;98.90;;;;;;10456115;28;20049;-62
2022/11/05 20:52:05;;;;;;;5.88;2.47;;;12.20;98.90;;;;;;10452806;28;20086;-62
2022/11/05 20:57:05;;;;;;;6.60;2.85;;;12.20;98.90;;;;;;10458237;28;20036;-64
2022/11/05 21:02:07;;;;;;;4.95;2.47;;;12.20;98.90;;;;;;10458211;28;20021;-62
2022/11/05 21:07:08;;;;;;;7.00;2.75;;;12.10;98.90;;;;;;10453547;28;20033;-62
2022/11/05 21:12:09;;;;;;;5.03;2.70;;;12.10;98.90;;;;;;10455206;28;20032;-62
2022/11/05 21:17:11;;;;;;;6.32;2.58;;;12.10;98.90;;;;;;10455379;28;20074;-62
2022/11/05 21:22:15;;;;;;;5.35;2.38;;;12.10;98.90;;;;;;10461252;28;20067;-62
2022/11/05 21:27:16;;;;;;;4.95;2.60;;;12.10;98.90;;;;;;10454401;28;20040;-62
2022/11/05 21:32:16;;;;;;;5.35;2.58;;;12.20;98.90;;;;;;10453267;28;20024;-62
2022/11/05 21:37:17;;;;;;;5.10;2.70;;;12.20;99.00;;;;;;10451439;28;20464;-62
2022/11/05 21:42:18;;;;;;;5.65;2.78;;;12.10;98.90;;;;;;10456332;28;20065;-62
2022/11/05 21:47:18;;;;;;;4.38;2.38;;;12.10;98.90;;;;;;10456717;28;20043;-62
2022/11/05 22:02:58;;;;;;;6.07;2.90;;;12.10;98.90;;;;;;10449467;28;20024;-62
2022/11/05 22:07:59;;;;;;;5.72;2.80;;;12.10;98.90;;;;;;10450201;28;20040;-62
2022/11/05 22:13:00;;;;;;;4.55;2.72;;;12.20;99.00;;;;;;10453908;28;20029;-63
2022/11/05 22:18:01;;;;;;;5.82;2.70;;;12.10;98.90;;;;;;10452952;28;20032;-62
2022/11/05 22:23:02;;;;;;;6.70;2.70;;;12.20;98.90;;;;;;10456507;28;20104;-62
2022/11/05 22:28:03;;;;;;;4.25;2.47;;;12.10;98.90;;;;;;10455495;28;20028;-62
2022/11/05 22:33:04;;;;;;;3.95;2.53;;;12.10;98.90;;;;;;10450596;28;20024;-62
2022/11/05 22:38:04;;;;;;;7.60;2.88;;;12.10;98.90;;;;;;10449737;28;20124;-63
2022/11/05 22:43:05;;;;;;;4.53;2.95;;;12.10;98.90;;;;;;10451652;28;20033;-62
2022/11/05 22:48:06;;;;;;;6.45;2.97;;;12.10;98.90;;;;;;10451443;28;20032;-62
2022/11/05 22:53:06;;;;;;;4.47;2.92;;;12.10;99.20;;;;;;10450966;28;20020;-62
2022/11/05 22:58:07;;;;;;;8.63;3.25;;;12.10;98.90;;;;;;10452263;28;20133;-62
2022/11/05 23:03:08;;;;;;;6.45;3.08;;;12.10;98.90;;;;;;10452616;28;20032;-66
2022/11/05 23:13:28;;;;;;;7.55;3.60;;;12.10;98.90;;;;;;10457547;28;20506;-62
2022/11/05 23:24:03;;;;;;;5.10;2.70;;;12.10;98.90;;;;;;10463136;28;20045;-61
2022/11/05 23:29:04;;;;;;;9.20;3.40;;;12.10;98.90;;;;;;10462275;28;20251;-62
2022/11/05 23:34:04;;;;;;;5.25;3.00;;;12.10;98.90;;;;;;10461604;28;20120;-62
2022/11/05 23:39:05;;;;;;;8.43;2.85;;;12.30;99.00;;;;;;10455243;28;20513;-61
2022/11/05 23:49:27;;;;;;;9.02;3.15;;;12.10;99.00;;;;;;10430037;28;20049;-62
2022/11/05 23:54:28;;;;;;;4.63;3.20;;;12.10;99.00;;;;;;10438555;28;20261;-61
2022/11/05 23:59:28;;;;;;;4.30;3.03;;;12.10;99.00;;;;;;10431699;28;20084;-62
